createdAt,value
2018-06-21T00:01:33.079Z,80.11
2018-06-21T00:04:01.254Z,78.76
2018-06-21T00:06:29.437Z,78.83
2018-06-21T00:08:57.594Z,79.24
2018-06-21T00:11:25.784Z,78.06
2018-06-21T00:13:53.947Z,78.97
2018-06-21T00:16:22.112Z,79.16
2018-06-21T00:18:50.279Z,79.12
2018-06-21T00:21:18.451Z,77.83
2018-06-21T00:23:46.635Z,76.86
2018-06-21T00:26:14.801Z,76.72
2018-06-21T00:28:42.962Z,76.49
2018-06-21T00:31:11.135Z,76.39
2018-06-21T00:33:39.309Z,76.92
2018-06-21T00:36:07.490Z,77.74
2018-06-21T00:38:35.638Z,78.16
2018-06-21T00:41:03.802Z,78.86
2018-06-21T00:43:32.010Z,78.29
2018-06-21T00:46:00.174Z,78.75
2018-06-21T00:48:28.338Z,79.70
2018-06-21T00:50:56.724Z,79.94
2018-06-21T00:53:25.031Z,79.55
2018-06-21T00:56:27.102Z,80.00
2018-06-21T00:58:55.263Z,80.88
2018-06-21T01:01:23.446Z,79.54
2018-06-21T01:03:51.614Z,79.41
2018-06-21T01:06:19.783Z,79.94
2018-06-21T01:08:47.959Z,80.68
2018-06-21T01:11:16.135Z,81.47
2018-06-21T01:13:44.302Z,79.43
2018-06-21T01:16:12.538Z,79.15
2018-06-21T01:18:40.695Z,79.05
2018-06-21T01:21:08.881Z,78.85
2018-06-21T01:23:37.042Z,79.15
2018-06-21T01:26:05.344Z,79.47
2018-06-21T01:28:33.516Z,80.08
2018-06-21T01:31:01.687Z,80.78
2018-06-21T01:33:29.851Z,82.36
2018-06-21T01:35:58.039Z,81.42
2018-06-21T01:38:26.206Z,81.83
2018-06-21T01:40:54.382Z,82.43
2018-06-21T01:43:22.567Z,82.61
2018-06-21T01:45:50.747Z,81.50
2018-06-21T01:48:18.935Z,81.73
2018-06-21T01:50:47.103Z,82.25
2018-06-21T01:53:15.258Z,81.42
2018-06-21T01:55:43.431Z,82.06
2018-06-21T01:58:11.602Z,81.43
2018-06-21T02:00:39.807Z,81.62
2018-06-21T02:03:07.974Z,82.73
2018-06-21T02:05:36.320Z,83.91
2018-06-21T02:08:04.510Z,84.16
2018-06-21T02:10:32.662Z,85.45
2018-06-21T02:13:00.827Z,85.45
2018-06-21T02:15:28.996Z,86.64
2018-06-21T02:17:57.150Z,87.54
2018-06-21T02:20:25.312Z,87.98
2018-06-21T02:22:53.463Z,87.68
2018-06-21T02:25:21.656Z,88.72
2018-06-21T02:27:49.802Z,89.16
2018-06-21T02:30:17.975Z,89.59
2018-06-21T02:32:46.155Z,89.33
2018-06-21T02:35:14.319Z,90.79
2018-06-21T02:37:42.497Z,91.07
2018-06-21T02:40:10.667Z,91.15
2018-06-21T02:42:38.837Z,91.81
2018-06-21T02:45:07.007Z,91.54
2018-06-21T02:47:35.182Z,91.79
2018-06-21T02:50:03.366Z,91.33
2018-06-21T02:52:32.760Z,91.58
2018-06-21T02:55:00.927Z,92.20
2018-06-21T02:57:29.296Z,92.03
2018-06-21T02:59:57.520Z,92.10
2018-06-21T03:02:25.737Z,92.69
2018-06-21T03:04:53.911Z,92.65
2018-06-21T03:07:22.096Z,92.31
2018-06-21T03:09:50.260Z,92.29
2018-06-21T03:12:23.179Z,92.16
2018-06-21T03:14:52.327Z,93.10
2018-06-21T03:17:20.532Z,92.91
2018-06-21T03:19:48.727Z,93.29
2018-06-21T03:22:16.911Z,92.78
2018-06-21T03:24:45.089Z,92.73
2018-06-21T03:27:13.258Z,91.85
2018-06-21T03:29:41.467Z,92.54
2018-06-21T03:32:09.960Z,91.96
2018-06-21T03:34:38.337Z,91.91
2018-06-21T03:37:06.515Z,91.67
2018-06-21T03:39:34.707Z,90.66
2018-06-21T03:42:02.874Z,90.01
2018-06-21T03:44:31.044Z,90.84
2018-06-21T03:46:59.223Z,90.82
2018-06-21T03:49:27.382Z,89.92
2018-06-21T03:51:55.547Z,89.69
2018-06-21T03:54:23.702Z,89.64
2018-06-21T03:56:51.856Z,89.82
2018-06-21T03:59:20.019Z,89.27
2018-06-21T04:01:48.214Z,88.90
2018-06-21T04:04:16.403Z,88.28
2018-06-21T04:06:44.574Z,88.53
2018-06-21T04:09:12.978Z,88.99
2018-06-21T04:11:41.178Z,88.19
2018-06-21T04:14:09.347Z,87.08
2018-06-21T04:16:37.995Z,87.39
2018-06-21T04:19:06.239Z,86.37
2018-06-21T04:21:34.443Z,86.40
2018-06-21T04:24:02.749Z,86.28
2018-06-21T04:26:30.919Z,86.61
2018-06-21T04:28:59.098Z,86.40
2018-06-21T04:31:27.271Z,86.84
2018-06-21T04:33:55.443Z,86.59
2018-06-21T04:36:24.146Z,86.27
2018-06-21T04:38:52.306Z,85.73
2018-06-21T04:41:20.479Z,85.44
2018-06-21T04:43:48.659Z,84.91
2018-06-21T04:46:16.820Z,85.26
2018-06-21T04:48:45.427Z,85.38
2018-06-21T04:51:13.691Z,84.83
2018-06-21T04:53:41.891Z,85.32
2018-06-21T04:56:10.062Z,84.04
2018-06-21T04:58:38.223Z,83.89
2018-06-21T05:01:06.903Z,83.76
2018-06-21T05:03:35.056Z,84.30
2018-06-21T05:06:03.228Z,84.73
2018-06-21T05:08:31.391Z,84.11
2018-06-21T05:10:59.543Z,85.29
2018-06-21T05:13:27.715Z,85.66
2018-06-21T05:15:55.936Z,85.50
2018-06-21T05:18:24.108Z,84.64
2018-06-21T05:20:53.320Z,84.29
2018-06-21T05:23:21.475Z,84.11
2018-06-21T05:25:49.638Z,84.03
2018-06-21T05:28:17.850Z,84.37
2018-06-21T05:30:46.003Z,84.38
2018-06-21T05:33:14.303Z,84.86
2018-06-21T05:35:42.476Z,84.77
2018-06-21T05:38:10.667Z,85.58
2018-06-21T05:40:38.854Z,86.59
2018-06-21T05:43:07.035Z,87.58
2018-06-21T05:45:35.480Z,87.85
2018-06-21T05:48:04.351Z,88.72
2018-06-21T05:50:33.607Z,88.57
2018-06-21T05:53:02.034Z,88.89
2018-06-21T05:55:31.169Z,88.65
2018-06-21T05:57:59.606Z,89.75
2018-06-21T06:00:27.873Z,89.65
2018-06-21T06:02:56.167Z,92.15
2018-06-21T06:05:24.335Z,93.08
2018-06-21T06:07:52.547Z,94.05
2018-06-21T06:10:21.403Z,95.30
2018-06-21T06:12:49.611Z,96.18
2018-06-21T06:15:17.794Z,96.56
2018-06-21T06:17:46.020Z,96.00
2018-06-21T06:20:14.196Z,95.50
2018-06-21T06:22:42.399Z,95.00
2018-06-21T06:25:10.575Z,95.39
2018-06-21T06:27:38.762Z,97.47
2018-06-21T06:30:07.451Z,98.84
2018-06-21T06:32:35.659Z,99.24
2018-06-21T06:35:03.843Z,99.97
2018-06-21T06:37:32.042Z,100.00
2018-06-21T06:40:00.252Z,100.00
2018-06-21T06:42:28.435Z,100.00
2018-06-21T06:44:56.630Z,100.00
2018-06-21T06:47:25.056Z,100.00
2018-06-21T06:49:53.255Z,100.00
2018-06-21T06:52:21.459Z,100.00
2018-06-21T06:54:49.701Z,100.00
2018-06-21T06:57:17.878Z,100.00
2018-06-21T06:59:46.093Z,100.00
2018-06-21T07:02:14.292Z,100.00
2018-06-21T07:04:42.484Z,100.00
2018-06-21T07:07:10.695Z,100.00
2018-06-21T07:09:38.852Z,100.00
2018-06-21T07:12:07.058Z,100.00
2018-06-21T07:14:35.247Z,99.98
2018-06-21T07:17:03.446Z,99.72
2018-06-21T07:19:31.623Z,100.00
2018-06-21T07:21:59.815Z,98.55
2018-06-21T07:24:27.991Z,98.35
2018-06-21T07:26:56.175Z,98.05
2018-06-21T07:29:24.346Z,97.42
2018-06-21T07:31:52.534Z,97.16
2018-06-21T07:34:20.711Z,96.92
2018-06-21T07:36:48.879Z,95.68
2018-06-21T07:39:17.061Z,96.31
2018-06-21T07:41:45.239Z,95.13
2018-06-21T07:44:13.411Z,95.00
2018-06-21T07:46:41.579Z,95.67
2018-06-21T07:49:09.754Z,95.11
2018-06-21T07:51:37.919Z,94.23
2018-06-21T07:54:06.099Z,91.45
2018-06-21T07:56:34.285Z,92.31
2018-06-21T07:59:02.483Z,91.24
2018-06-21T08:01:30.660Z,89.33
2018-06-21T08:03:58.819Z,88.53
2018-06-21T08:06:27.011Z,88.43
2018-06-21T08:08:55.154Z,88.47
2018-06-21T08:11:23.316Z,89.19
2018-06-21T08:13:51.470Z,86.93
2018-06-21T08:16:19.643Z,85.20
2018-06-21T08:18:47.801Z,86.97
2018-06-21T08:21:15.950Z,85.33
2018-06-21T08:23:44.134Z,85.77
2018-06-21T08:26:12.303Z,83.77
2018-06-21T08:28:40.508Z,80.71
2018-06-21T08:31:08.770Z,79.81
2018-06-21T08:33:36.951Z,79.25
2018-06-21T08:36:05.119Z,78.12
2018-06-21T08:38:33.303Z,77.40
2018-06-21T08:41:01.474Z,76.84
2018-06-21T08:43:29.646Z,76.15
2018-06-21T08:45:57.832Z,75.93
2018-06-21T08:48:25.986Z,75.15
2018-06-21T08:50:54.175Z,74.38
2018-06-21T08:53:22.505Z,72.17
2018-06-21T08:55:50.658Z,71.67
2018-06-21T08:58:18.890Z,70.84
2018-06-21T09:00:47.002Z,69.51
2018-06-21T09:03:15.202Z,68.21
2018-06-21T09:05:43.363Z,65.57
2018-06-21T09:08:11.515Z,68.12
2018-06-21T09:10:39.699Z,68.13
2018-06-21T09:13:07.874Z,67.83
2018-06-21T09:15:36.084Z,67.87
2018-06-21T09:18:04.251Z,67.11
2018-06-21T09:20:32.435Z,66.77
2018-06-21T09:23:00.602Z,65.25
2018-06-21T09:25:28.759Z,65.83
2018-06-21T09:27:56.930Z,66.54
2018-06-21T09:30:25.095Z,62.60
2018-06-21T09:32:53.265Z,64.25
2018-06-21T09:35:21.424Z,63.88
2018-06-21T09:37:54.919Z,63.86
2018-06-21T09:40:28.428Z,60.04
2018-06-21T09:43:01.799Z,58.35
2018-06-21T09:45:35.236Z,58.39
2018-06-21T09:48:08.683Z,60.98
2018-06-21T09:50:36.838Z,62.45
2018-06-21T09:53:05.021Z,62.03
2018-06-21T09:55:33.195Z,60.05
2018-06-21T09:58:01.387Z,59.06
2018-06-21T10:00:34.774Z,60.25
2018-06-21T10:03:02.938Z,56.82
2018-06-21T10:05:31.115Z,56.31
2018-06-21T10:07:59.303Z,55.07
2018-06-21T10:10:27.466Z,51.97
2018-06-21T10:12:55.630Z,50.63
2018-06-21T10:15:23.804Z,53.52
2018-06-21T10:17:51.986Z,50.99
2018-06-21T10:20:20.158Z,53.68
2018-06-21T10:22:48.314Z,52.93
2018-06-21T10:25:16.470Z,53.63
2018-06-21T10:27:44.648Z,52.47
2018-06-21T10:30:12.814Z,53.26
2018-06-21T10:32:40.974Z,55.70
2018-06-21T10:35:09.165Z,52.65
2018-06-21T10:37:37.319Z,50.85
2018-06-21T10:40:05.503Z,50.36
2018-06-21T10:42:33.678Z,50.64
2018-06-21T10:45:01.828Z,48.40
2018-06-21T10:47:29.994Z,47.79
2018-06-21T10:49:58.154Z,47.89
2018-06-21T10:52:26.323Z,47.72
2018-06-21T10:54:54.495Z,46.63
2018-06-21T10:57:22.659Z,45.91
2018-06-21T10:59:50.819Z,46.45
2018-06-21T11:02:19.040Z,41.78
2018-06-21T11:04:47.206Z,43.11
2018-06-21T11:07:15.491Z,42.34
2018-06-21T11:09:43.666Z,42.89
2018-06-21T11:12:11.833Z,42.99
2018-06-21T11:14:40.007Z,40.51
2018-06-21T11:17:08.175Z,38.99
2018-06-21T11:19:36.352Z,38.06
2018-06-21T11:22:04.507Z,37.93
2018-06-21T11:24:32.675Z,38.54
2018-06-21T11:27:00.886Z,40.04
2018-06-21T11:29:29.043Z,42.41
2018-06-21T11:31:57.199Z,39.80
2018-06-21T11:34:25.375Z,41.21
2018-06-21T11:36:53.530Z,38.84
2018-06-21T11:39:21.719Z,38.82
2018-06-21T11:41:49.894Z,41.53
2018-06-21T11:44:18.055Z,39.06
2018-06-21T11:46:46.267Z,41.15
2018-06-21T11:49:14.411Z,39.37
2018-06-21T11:51:42.582Z,37.44
2018-06-21T11:54:10.733Z,37.27
2018-06-21T11:56:38.901Z,34.24
2018-06-21T11:59:07.068Z,34.26
2018-06-21T12:01:35.299Z,34.96
2018-06-21T12:04:03.463Z,35.19
2018-06-21T12:06:31.742Z,35.75
2018-06-21T12:08:59.901Z,35.73
2018-06-21T12:11:28.070Z,36.21
2018-06-21T12:13:56.239Z,36.34
2018-06-21T12:16:24.403Z,36.74
2018-06-21T12:18:52.567Z,35.67
2018-06-21T12:21:20.735Z,35.46
2018-06-21T12:23:48.903Z,37.57
2018-06-21T12:26:17.106Z,37.51
2018-06-21T12:28:45.271Z,38.02
2018-06-21T12:31:13.423Z,37.96
2018-06-21T12:33:41.626Z,37.66
2018-06-21T12:36:09.803Z,38.63
2018-06-21T12:38:37.966Z,37.15
2018-06-21T12:41:06.147Z,37.14
2018-06-21T12:43:34.314Z,36.19
2018-06-21T12:46:02.463Z,37.33
2018-06-21T12:48:30.642Z,36.87
2018-06-21T12:50:58.786Z,36.17
2018-06-21T12:53:26.959Z,37.09
2018-06-21T12:55:55.122Z,38.10
2018-06-21T12:58:23.319Z,37.49
2018-06-21T13:00:51.487Z,37.08
2018-06-21T13:03:19.655Z,36.34
2018-06-21T13:05:47.822Z,36.61
2018-06-21T13:09:24.439Z,38.27
2018-06-21T13:12:18.407Z,36.45
2018-06-21T13:14:46.602Z,35.42
2018-06-21T13:17:14.782Z,36.08
2018-06-21T13:19:42.954Z,38.35
2018-06-21T13:22:11.129Z,37.40
2018-06-21T13:24:39.311Z,39.32
2018-06-21T13:27:07.512Z,35.38
2018-06-21T13:29:35.933Z,35.61
2018-06-21T13:32:04.115Z,36.61
2018-06-21T13:34:32.288Z,38.19
2018-06-21T13:37:00.502Z,36.52
2018-06-21T13:39:28.635Z,35.96
2018-06-21T13:41:56.818Z,37.93
2018-06-21T13:44:24.982Z,35.98
2018-06-21T13:46:53.150Z,37.26
2018-06-21T13:49:21.691Z,38.80
2018-06-21T13:51:49.882Z,36.90
2018-06-21T13:54:18.050Z,36.27
2018-06-21T13:56:47.355Z,36.01
2018-06-21T13:59:16.195Z,36.41
2018-06-21T14:01:44.327Z,36.11
2018-06-21T14:04:12.664Z,36.26
2018-06-21T14:06:40.943Z,37.25
2018-06-21T14:09:10.959Z,37.79
2018-06-21T14:11:39.154Z,36.91
2018-06-21T14:14:07.370Z,36.73
2018-06-21T14:16:35.877Z,36.27
2018-06-21T14:19:04.084Z,37.22
2018-06-21T14:21:32.325Z,35.40
2018-06-21T14:24:00.495Z,35.56
2018-06-21T14:26:28.661Z,37.46
2018-06-21T14:28:56.970Z,36.40
2018-06-21T14:31:25.514Z,37.67
2018-06-21T14:33:54.100Z,35.76
2018-06-21T14:36:22.299Z,36.94
2018-06-21T14:38:50.454Z,38.70
2018-06-21T14:41:18.610Z,33.77
2018-06-21T14:43:46.766Z,37.69
2018-06-21T14:46:14.938Z,36.29
2018-06-21T14:48:43.103Z,37.04
2018-06-21T14:51:11.283Z,36.39
2018-06-21T14:53:39.477Z,34.91
2018-06-21T14:56:07.603Z,37.48
2018-06-21T14:58:35.770Z,38.42
2018-06-21T15:01:03.959Z,40.14
2018-06-21T15:03:32.138Z,42.00
2018-06-21T15:06:00.419Z,40.67
2018-06-21T15:08:28.587Z,39.84
2018-06-21T15:10:56.921Z,39.89
2018-06-21T15:13:25.096Z,41.55
2018-06-21T15:15:53.268Z,40.93
2018-06-21T15:18:21.428Z,41.17
2018-06-21T15:20:49.590Z,40.36
2018-06-21T15:23:17.745Z,40.26
2018-06-21T15:25:45.919Z,40.49
2018-06-21T15:28:14.098Z,42.89
2018-06-21T15:30:42.283Z,40.30
2018-06-21T15:33:10.439Z,42.19
2018-06-21T15:35:38.594Z,42.72
2018-06-21T15:38:06.777Z,40.99
2018-06-21T15:40:34.962Z,41.95
2018-06-21T15:43:03.142Z,42.74
2018-06-21T15:45:31.419Z,43.06
2018-06-21T15:47:59.540Z,40.99
2018-06-21T15:50:27.694Z,41.16
2018-06-21T15:52:55.900Z,40.43
2018-06-21T15:55:24.063Z,41.27
2018-06-21T15:57:52.223Z,40.50
2018-06-21T16:00:20.379Z,40.36
2018-06-21T16:02:48.574Z,41.47
2018-06-21T16:05:16.732Z,42.76
2018-06-21T16:07:44.895Z,42.48
2018-06-21T16:10:13.050Z,42.18
2018-06-21T16:12:41.224Z,43.97
2018-06-21T16:15:09.398Z,44.19
2018-06-21T16:17:37.564Z,44.86
2018-06-21T16:20:05.726Z,43.24
2018-06-21T16:22:33.891Z,44.55
2018-06-21T16:25:02.043Z,43.21
2018-06-21T16:27:30.200Z,42.62
2018-06-21T16:29:58.380Z,42.91
2018-06-21T16:32:26.552Z,42.57
2018-06-21T16:34:54.787Z,44.32
2018-06-21T16:37:23.020Z,43.12
2018-06-21T16:39:51.489Z,43.23
2018-06-21T16:42:19.691Z,43.89
2018-06-21T16:44:47.948Z,45.09
2018-06-21T16:47:16.179Z,45.01
2018-06-21T16:49:44.446Z,45.50
2018-06-21T16:52:12.881Z,46.39
2018-06-21T16:54:41.679Z,46.19
2018-06-21T16:57:09.879Z,45.17
2018-06-21T16:59:38.047Z,44.98
2018-06-21T17:02:06.242Z,45.04
2018-06-21T17:04:34.462Z,45.63
2018-06-21T17:07:02.691Z,45.99
2018-06-21T17:09:30.882Z,45.46
2018-06-21T17:11:59.055Z,45.71
2018-06-21T17:14:27.238Z,45.83
2018-06-21T17:16:55.531Z,46.45
2018-06-21T17:19:23.682Z,46.69
2018-06-21T17:21:51.902Z,46.96
2018-06-21T17:24:20.131Z,47.38
2018-06-21T17:26:48.323Z,48.65
2018-06-21T17:29:16.549Z,47.52
2018-06-21T17:31:44.819Z,48.83
2018-06-21T17:34:12.966Z,48.25
2018-06-21T17:36:41.553Z,47.48
2018-06-21T17:39:10.651Z,48.31
2018-06-21T17:41:38.812Z,49.45
2018-06-21T17:44:06.982Z,48.41
2018-06-21T17:46:35.315Z,48.50
2018-06-21T17:49:03.532Z,47.73
2018-06-21T17:51:31.773Z,49.96
2018-06-21T17:53:59.925Z,49.36
2018-06-21T17:56:28.127Z,50.15
2018-06-21T17:58:56.299Z,50.23
2018-06-21T18:01:24.478Z,51.54
2018-06-21T18:03:52.691Z,51.22
2018-06-21T18:06:20.936Z,51.14
2018-06-21T18:08:49.502Z,52.04
2018-06-21T18:11:17.770Z,52.06
2018-06-21T18:13:45.987Z,52.97
2018-06-21T18:16:14.385Z,52.58
2018-06-21T18:18:42.715Z,52.73
2018-06-21T18:21:10.920Z,53.44
2018-06-21T18:23:39.227Z,53.23
2018-06-21T18:26:07.868Z,54.97
2018-06-21T18:28:36.114Z,53.90
2018-06-21T18:31:04.330Z,53.70
2018-06-21T18:33:32.695Z,54.60
2018-06-21T18:36:00.945Z,54.77
2018-06-21T18:38:29.191Z,53.56
2018-06-21T18:40:57.371Z,55.27
2018-06-21T18:43:25.560Z,55.11
2018-06-21T18:45:53.758Z,55.16
2018-06-21T18:48:22.003Z,55.71
2018-06-21T18:50:50.465Z,55.97
2018-06-21T18:53:18.854Z,56.58
2018-06-21T18:55:47.335Z,58.68
2018-06-21T18:58:15.603Z,58.71
2018-06-21T19:00:44.102Z,58.50
2018-06-21T19:03:12.331Z,56.68
2018-06-21T19:05:40.531Z,56.39
2018-06-21T19:08:14.055Z,57.54
2018-06-21T19:10:47.769Z,58.67
2018-06-21T19:13:15.803Z,57.76
2018-06-21T19:15:44.017Z,55.92
2018-06-21T19:18:12.258Z,54.06
2018-06-21T19:20:40.467Z,54.52
2018-06-21T19:23:08.727Z,54.76
2018-06-21T19:25:36.967Z,55.74
2018-06-21T19:28:05.063Z,56.19
2018-06-21T19:30:33.240Z,57.00
2018-06-21T19:33:01.412Z,56.08
2018-06-21T19:35:29.591Z,55.11
2018-06-21T19:37:57.778Z,56.30
2018-06-21T19:40:25.951Z,54.82
2018-06-21T19:42:54.163Z,54.53
2018-06-21T19:45:22.315Z,54.99
2018-06-21T19:47:50.467Z,55.45
2018-06-21T19:50:18.639Z,54.98
2018-06-21T19:52:46.795Z,56.22
2018-06-21T19:55:16.287Z,56.24
2018-06-21T19:57:44.459Z,55.85
2018-06-21T20:00:12.630Z,56.77
2018-06-21T20:02:46.130Z,56.02
2018-06-21T20:05:14.303Z,57.19
2018-06-21T20:07:42.475Z,57.28
2018-06-21T20:10:10.775Z,58.01
2018-06-21T20:12:38.983Z,58.64
2018-06-21T20:15:07.110Z,59.22
2018-06-21T20:17:35.443Z,59.70
2018-06-21T20:20:08.926Z,60.69
2018-06-21T20:22:37.111Z,60.59
2018-06-21T20:25:05.271Z,61.18
2018-06-21T20:27:33.429Z,61.37
2018-06-21T20:30:01.595Z,61.36
2018-06-21T20:32:29.746Z,61.63
2018-06-21T20:34:58.053Z,61.92
2018-06-21T20:37:26.442Z,62.78
2018-06-21T20:39:54.615Z,62.57
2018-06-21T20:42:22.779Z,63.74
2018-06-21T20:44:50.946Z,64.83
2018-06-21T20:47:19.330Z,63.97
2018-06-21T20:49:47.607Z,64.88
2018-06-21T20:52:21.155Z,64.15
2018-06-21T20:54:49.314Z,64.91
2018-06-21T20:57:17.472Z,64.51
2018-06-21T20:59:45.627Z,65.04
2018-06-21T21:02:13.793Z,64.90
2018-06-21T21:05:18.548Z,64.86
2018-06-21T21:07:47.923Z,64.85
2018-06-21T21:10:17.159Z,65.22
2018-06-21T21:12:45.286Z,66.34
2018-06-21T21:15:14.266Z,66.13
2018-06-21T21:17:42.578Z,66.38
2018-06-21T21:20:11.047Z,66.40
2018-06-21T21:22:40.060Z,66.74
2018-06-21T21:25:08.198Z,66.55
2018-06-21T21:27:36.348Z,66.73
2018-06-21T21:30:06.847Z,66.28
2018-06-21T21:32:35.129Z,66.85
2018-06-21T21:35:03.275Z,66.72
2018-06-21T21:37:31.387Z,66.38
2018-06-21T21:40:01.694Z,66.61
2018-06-21T21:42:30.962Z,66.11
2018-06-21T21:44:59.136Z,67.55
2018-06-21T21:47:27.303Z,67.47
2018-06-21T21:49:55.590Z,68.58
2018-06-21T21:52:23.766Z,67.68
2018-06-21T21:54:51.934Z,68.09
2018-06-21T21:57:20.231Z,69.00
2018-06-21T21:59:49.207Z,69.07
2018-06-21T22:02:17.786Z,69.12
2018-06-21T22:04:46.274Z,69.47
2018-06-21T22:07:14.547Z,69.14
2018-06-21T22:09:42.830Z,69.51
2018-06-21T22:12:10.964Z,69.58
2018-06-21T22:14:39.121Z,70.01
2018-06-21T22:17:07.261Z,70.65
2018-06-21T22:19:35.390Z,70.34
2018-06-21T22:22:03.515Z,70.72
2018-06-21T22:24:31.654Z,70.22
2018-06-21T22:26:59.794Z,70.12
2018-06-21T22:29:27.934Z,69.93
2018-06-21T22:31:56.075Z,70.37
2018-06-21T22:34:24.202Z,70.23
2018-06-21T22:36:52.359Z,70.45
2018-06-21T22:39:20.490Z,70.78
2018-06-21T22:41:48.622Z,70.10
2018-06-21T22:44:16.747Z,69.89
2018-06-21T22:46:44.862Z,70.48
2018-06-21T22:49:13.008Z,70.82
2018-06-21T22:51:41.147Z,70.46
2018-06-21T22:54:09.272Z,69.94
2018-06-21T22:56:37.404Z,69.97
2018-06-21T22:59:05.527Z,69.58
2018-06-21T23:01:33.666Z,69.93
2018-06-21T23:04:01.807Z,69.93
2018-06-21T23:06:29.942Z,70.77
2018-06-21T23:08:58.084Z,70.48
2018-06-21T23:11:26.223Z,70.19
2018-06-21T23:13:54.354Z,70.28
2018-06-21T23:16:22.495Z,70.87
2018-06-21T23:19:01.952Z,71.51
2018-06-21T23:21:30.077Z,71.17
2018-06-21T23:23:58.215Z,71.76
2018-06-21T23:26:26.338Z,71.94
2018-06-21T23:28:54.480Z,72.65
2018-06-21T23:31:22.607Z,72.58
2018-06-21T23:33:50.744Z,73.28
2018-06-21T23:36:18.887Z,73.07
2018-06-21T23:38:47.025Z,74.32
2018-06-21T23:41:15.164Z,73.32
2018-06-21T23:43:43.292Z,73.10
2018-06-21T23:46:11.435Z,73.21
2018-06-21T23:48:39.582Z,73.44
2018-06-21T23:51:07.719Z,73.60
2018-06-21T23:53:35.870Z,73.62
2018-06-21T23:56:04.001Z,73.90
2018-06-21T23:58:32.150Z,73.60
